PWSweather.com
Personal Weather Stations
Station Observations
SUBOTICARS
SuboticaYU

SuboticaYU

Lat: 46.1296717, Lon: 19.641551

Elevation: 361

Station Type: Nexus

http://sumeteo.info

Latest ConditionsUpdated 12:40:01 PM GMT+01:01 Saturday, Jul 21, 2018
Currently Today's Max Today's Min Today's Average
Temperature 86.7°F30.4°C 87.4°F30.8°C 59.0°F15.0°C 71.5°F21.9°C
Dew Point 62.2°F16.8°C 67.5°F19.7°C 55.1°F12.8°C 60.8°F16.0°C
Winds 4.6 mph S7.4 kmh S 5.8 mph -9.3 kmh - - 1.7 mph 2.7 kmh
Wind Gusts 3.5 mph5.6 kmh 6.9 mph11.1 kmh - -
Humidity 44% 91% 42% 71%
Pressure 29.56 in1001.0 mb 29.58 in1001.7 mb 29.54 in1000.3 mb -
Hour Temp Dew Point Humidity Winds Wind Gusts Pressure Precip Precip Rate Daily Precip Total
12:40 PM 86.7°F30.4°C 62.2°F16.8°C 44% 4.6 mph S7.4 kmh S 3.5 mph5.6 kmh 29.56 in1001.0 mb - 0.00 in0.0 mm 0.00 in0.0 mm
12:35 PM 86.7°F30.4°C 60.9°F16.1°C 42% 3.5 mph WNW5.6 kmh WNW 2.3 mph3.7 kmh 29.56 in1001.0 mb - 0.00 in0.0 mm 0.00 in0.0 mm
12:30 PM 87.0°F30.6°C 62.4°F16.9°C 44% 2.3 mph WNW3.7 kmh WNW 3.5 mph5.6 kmh 29.56 in1001.0 mb - 0.00 in0.0 mm 0.00 in0.0 mm
12:25 PM 87.4°F30.8°C 62.8°F17.1°C 44% 3.5 mph W5.6 kmh W 3.5 mph5.6 kmh 29.56 in1001.0 mb - 0.00 in0.0 mm 0.00 in0.0 mm
12:20 PM 86.5°F30.3°C 62.0°F16.7°C 44% 3.5 mph NNE5.6 kmh NNE 4.6 mph7.4 kmh 29.56 in1001.0 mb - 0.00 in0.0 mm 0.00 in0.0 mm
12:15 PM 86.7°F30.4°C 62.8°F17.1°C 45% 4.6 mph SW7.4 kmh SW 6.9 mph11.1 kmh 29.56 in1001.0 mb - 0.00 in0.0 mm 0.00 in0.0 mm
12:10 PM 85.1°F29.5°C 59.4°F15.2°C 42% 2.3 mph NW3.7 kmh NW 2.3 mph3.7 kmh 29.57 in1001.4 mb - 0.00 in0.0 mm 0.00 in0.0 mm
12:00 PM 85.8°F29.9°C 60.7°F15.9°C 43% 3.5 mph NW5.6 kmh NW 3.5 mph5.6 kmh 29.57 in1001.4 mb - 0.00 in0.0 mm 0.00 in0.0 mm
11:55 AM 86.5°F30.3°C 61.3°F16.3°C 43% 3.5 mph WSW5.6 kmh WSW 3.5 mph5.6 kmh 29.57 in1001.4 mb - 0.00 in0.0 mm 0.00 in0.0 mm
11:50 AM 86.9°F30.5°C 63.0°F17.2°C 45% 3.5 mph W5.6 kmh W 4.6 mph7.4 kmh 29.57 in1001.4 mb - 0.00 in0.0 mm 0.00 in0.0 mm
11:45 AM 86.4°F30.2°C 62.5°F16.9°C 45% 4.6 mph WSW7.4 kmh WSW 4.6 mph7.4 kmh 29.57 in1001.4 mb - 0.00 in0.0 mm 0.00 in0.0 mm
11:40 AM 85.3°F29.6°C 61.5°F16.4°C 45% 2.3 mph NW3.7 kmh NW 2.3 mph3.7 kmh 29.57 in1001.4 mb - 0.00 in0.0 mm 0.00 in0.0 mm
11:35 AM 85.8°F29.9°C 62.0°F16.7°C 45% 5.8 mph WNW9.3 kmh WNW 5.8 mph9.3 kmh 29.57 in1001.4 mb - 0.00 in0.0 mm 0.00 in0.0 mm
11:30 AM 86.0°F30.0°C 62.2°F16.8°C 45% 4.6 mph WNW7.4 kmh WNW 4.6 mph7.4 kmh 29.57 in1001.4 mb - 0.00 in0.0 mm 0.00 in0.0 mm
11:25 AM 85.6°F29.8°C 63.1°F17.3°C 47% 4.6 mph SSW7.4 kmh SSW 5.8 mph9.3 kmh 29.57 in1001.4 mb - 0.00 in0.0 mm 0.00 in0.0 mm
11:20 AM 85.6°F29.8°C 63.1°F17.3°C 47% 3.5 mph W5.6 kmh W 3.5 mph5.6 kmh 29.57 in1001.4 mb - 0.00 in0.0 mm 0.00 in0.0 mm
11:15 AM 85.6°F29.8°C 63.7°F17.6°C 48% 3.5 mph S5.6 kmh S 4.6 mph7.4 kmh 29.57 in1001.4 mb - 0.00 in0.0 mm 0.00 in0.0 mm
11:10 AM 85.8°F29.9°C 63.9°F17.7°C 48% 4.6 mph SSW7.4 kmh SSW 5.8 mph9.3 kmh 29.57 in1001.4 mb - 0.00 in0.0 mm 0.00 in0.0 mm
11:00 AM 85.3°F29.6°C 62.8°F17.1°C 47% 2.3 mph WNW3.7 kmh WNW 4.6 mph7.4 kmh 29.57 in1001.4 mb - 0.00 in0.0 mm 0.00 in0.0 mm
10:55 AM 86.0°F30.0°C 64.0°F17.8°C 48% 5.8 mph SSW9.3 kmh SSW 5.8 mph9.3 kmh 29.58 in1001.7 mb - 0.00 in0.0 mm 0.00 in0.0 mm
10:50 AM 85.5°F29.7°C 64.1°F17.8°C 49% 2.3 mph WNW3.7 kmh WNW 3.5 mph5.6 kmh 29.58 in1001.7 mb - 0.00 in0.0 mm 0.00 in0.0 mm
10:45 AM 85.3°F29.6°C 64.0°F17.8°C 49% 5.8 mph SSW9.3 kmh SSW 5.8 mph9.3 kmh 29.58 in1001.7 mb - 0.00 in0.0 mm 0.00 in0.0 mm
10:40 AM 85.5°F29.7°C 64.7°F18.2°C 50% 4.6 mph SSW7.4 kmh SSW 5.8 mph9.3 kmh 29.58 in1001.7 mb - 0.00 in0.0 mm 0.00 in0.0 mm
10:35 AM 84.8°F29.3°C 64.1°F17.8°C 50% 3.5 mph W5.6 kmh W 3.5 mph5.6 kmh 29.58 in1001.7 mb - 0.00 in0.0 mm 0.00 in0.0 mm
10:30 AM 84.5°F29.2°C 63.8°F17.7°C 50% 2.3 mph S3.7 kmh S 3.5 mph5.6 kmh 29.58 in1001.7 mb - 0.00 in0.0 mm 0.00 in0.0 mm
10:25 AM 84.7°F29.3°C 64.0°F17.8°C 50% 4.6 mph SSW7.4 kmh SSW 6.9 mph11.1 kmh 29.58 in1001.7 mb - 0.00 in0.0 mm 0.00 in0.0 mm
10:20 AM 84.7°F29.3°C 64.6°F18.1°C 51% 4.6 mph SW7.4 kmh SW 3.5 mph5.6 kmh 29.58 in1001.7 mb - 0.00 in0.0 mm 0.00 in0.0 mm
10:15 AM 84.2°F29.0°C 64.1°F17.8°C 51% 3.5 mph SW5.6 kmh SW 4.6 mph7.4 kmh 29.58 in1001.7 mb - 0.00 in0.0 mm 0.00 in0.0 mm
10:10 AM 84.0°F28.9°C 65.0°F18.3°C 53% 5.8 mph SW9.3 kmh SW 5.8 mph9.3 kmh 29.57 in1001.4 mb - 0.00 in0.0 mm 0.00 in0.0 mm
10:00 AM 83.7°F28.7°C 65.3°F18.5°C 54% 4.6 mph SSE7.4 kmh SSE 5.8 mph9.3 kmh 29.57 in1001.4 mb - 0.00 in0.0 mm 0.00 in0.0 mm
09:55 AM 83.3°F28.5°C 64.9°F18.3°C 54% 2.3 mph WSW3.7 kmh WSW 3.5 mph5.6 kmh 29.57 in1001.4 mb - 0.00 in0.0 mm 0.00 in0.0 mm
09:50 AM 83.7°F28.7°C 65.8°F18.8°C 55% 4.6 mph SSW7.4 kmh SSW 3.5 mph5.6 kmh 29.57 in1001.4 mb - 0.00 in0.0 mm 0.00 in0.0 mm
09:45 AM 82.9°F28.3°C 65.6°F18.7°C 56% 3.5 mph S5.6 kmh S 3.5 mph5.6 kmh 29.57 in1001.4 mb - 0.00 in0.0 mm 0.00 in0.0 mm
09:40 AM 83.5°F28.6°C 66.1°F18.9°C 56% 2.3 mph SSW3.7 kmh SSW 2.3 mph3.7 kmh 29.57 in1001.4 mb - 0.00 in0.0 mm 0.00 in0.0 mm
09:35 AM 83.5°F28.6°C 66.6°F19.2°C 57% 2.3 mph WSW3.7 kmh WSW 2.3 mph3.7 kmh 29.57 in1001.4 mb - 0.00 in0.0 mm 0.00 in0.0 mm
09:30 AM 82.8°F28.2°C 65.5°F18.6°C 56% 2.3 mph WSW3.7 kmh WSW 3.5 mph5.6 kmh 29.57 in1001.4 mb - 0.00 in0.0 mm 0.00 in0.0 mm
09:25 AM 82.8°F28.2°C 66.0°F18.9°C 57% 3.5 mph SSW5.6 kmh SSW 6.9 mph11.1 kmh 29.58 in1001.7 mb - 0.00 in0.0 mm 0.00 in0.0 mm
09:20 AM 82.6°F28.1°C 65.8°F18.8°C 57% 3.5 mph N5.6 kmh N 3.5 mph5.6 kmh 29.58 in1001.7 mb - 0.00 in0.0 mm 0.00 in0.0 mm
09:15 AM 82.2°F27.9°C 66.0°F18.9°C 58% 1.2 mph E1.9 kmh E 2.3 mph3.7 kmh 29.58 in1001.7 mb - 0.00 in0.0 mm 0.00 in0.0 mm
09:10 AM 82.6°F28.1°C 67.3°F19.6°C 60% 2.3 mph S3.7 kmh S 3.5 mph5.6 kmh 29.57 in1001.4 mb - 0.00 in0.0 mm 0.00 in0.0 mm
09:00 AM 81.5°F27.5°C 67.2°F19.6°C 62% 1.2 mph E1.9 kmh E 2.3 mph3.7 kmh 29.57 in1001.4 mb - 0.00 in0.0 mm 0.00 in0.0 mm
08:55 AM 81.0°F27.2°C 66.2°F19.0°C 61% 3.5 mph S5.6 kmh S 3.5 mph5.6 kmh 29.57 in1001.4 mb - 0.00 in0.0 mm 0.00 in0.0 mm
08:50 AM 80.2°F26.8°C 64.6°F18.1°C 59% 2.3 mph WSW3.7 kmh WSW 2.3 mph3.7 kmh 29.57 in1001.4 mb - 0.00 in0.0 mm 0.00 in0.0 mm
08:45 AM 81.1°F27.3°C 66.4°F19.1°C 61% 2.3 mph NNE3.7 kmh NNE 2.3 mph3.7 kmh 29.57 in1001.4 mb - 0.00 in0.0 mm 0.00 in0.0 mm
08:40 AM 81.0°F27.2°C 67.2°F19.6°C 63% 3.5 mph SE5.6 kmh SE 3.5 mph5.6 kmh 29.57 in1001.4 mb - 0.00 in0.0 mm 0.00 in0.0 mm
08:35 AM 80.7°F27.1°C 66.4°F19.1°C 62% 1.2 mph NE1.9 kmh NE 3.5 mph5.6 kmh 29.57 in1001.4 mb - 0.00 in0.0 mm 0.00 in0.0 mm
08:30 AM 80.3°F26.8°C 67.5°F19.7°C 65% 2.3 mph E3.7 kmh E 3.5 mph5.6 kmh 29.57 in1001.4 mb - 0.00 in0.0 mm 0.00 in0.0 mm
08:25 AM 79.7°F26.5°C 66.9°F19.4°C 65% 2.3 mph S3.7 kmh S 3.5 mph5.6 kmh 29.57 in1001.4 mb - 0.00 in0.0 mm 0.00 in0.0 mm
08:20 AM 78.8°F26.0°C 64.7°F18.2°C 62% 2.3 mph WNW3.7 kmh WNW 3.5 mph5.6 kmh 29.57 in1001.4 mb - 0.00 in0.0 mm 0.00 in0.0 mm
08:15 AM 79.7°F26.5°C 66.0°F18.9°C 63% 2.3 mph NE3.7 kmh NE 3.5 mph5.6 kmh 29.57 in1001.4 mb - 0.00 in0.0 mm 0.00 in0.0 mm
08:10 AM 79.5°F26.4°C 67.2°F19.6°C 66% 1.2 mph SE1.9 kmh SE 3.5 mph5.6 kmh 29.57 in1001.4 mb - 0.00 in0.0 mm 0.00 in0.0 mm
08:00 AM 78.8°F26.0°C 66.9°F19.4°C 67% 1.2 mph NE1.9 kmh NE 2.3 mph3.7 kmh 29.57 in1001.4 mb - 0.00 in0.0 mm 0.00 in0.0 mm
07:55 AM 78.1°F25.6°C 66.2°F19.0°C 67% 2.3 mph N3.7 kmh N 3.5 mph5.6 kmh 29.57 in1001.4 mb - 0.00 in0.0 mm 0.00 in0.0 mm
07:50 AM 77.0°F25.0°C 63.9°F17.7°C 64% 2.3 mph N3.7 kmh N 3.5 mph5.6 kmh 29.57 in1001.4 mb - 0.00 in0.0 mm 0.00 in0.0 mm
07:45 AM 77.4°F25.2°C 64.7°F18.2°C 65% 2.3 mph N3.7 kmh N 2.3 mph3.7 kmh 29.57 in1001.4 mb - 0.00 in0.0 mm 0.00 in0.0 mm
07:40 AM 77.2°F25.1°C 66.2°F19.0°C 69% 1.2 mph ENE1.9 kmh ENE 2.3 mph3.7 kmh 29.57 in1001.4 mb - 0.00 in0.0 mm 0.00 in0.0 mm
07:35 AM 76.7°F24.8°C 66.2°F19.0°C 70% 1.2 mph E1.9 kmh E 3.5 mph5.6 kmh 29.57 in1001.4 mb - 0.00 in0.0 mm 0.00 in0.0 mm
07:30 AM 75.6°F24.2°C 65.1°F18.4°C 70% 2.3 mph NNW3.7 kmh NNW 2.3 mph3.7 kmh 29.57 in1001.4 mb - 0.00 in0.0 mm 0.00 in0.0 mm
07:25 AM 75.2°F24.0°C 63.9°F17.7°C 68% 2.3 mph NNW3.7 kmh NNW 3.5 mph5.6 kmh 29.57 in1001.4 mb - 0.00 in0.0 mm 0.00 in0.0 mm
07:20 AM 75.0°F23.9°C 65.0°F18.3°C 71% 2.3 mph NNW3.7 kmh NNW 3.5 mph5.6 kmh 29.57 in1001.4 mb - 0.00 in0.0 mm 0.00 in0.0 mm
07:15 AM 74.8°F23.8°C 65.6°F18.7°C 73% 2.3 mph NW3.7 kmh NW 2.3 mph3.7 kmh 29.57 in1001.4 mb - 0.00 in0.0 mm 0.00 in0.0 mm
07:10 AM 74.3°F23.5°C 65.5°F18.6°C 74% 2.3 mph ENE3.7 kmh ENE 3.5 mph5.6 kmh 29.57 in1001.4 mb - 0.00 in0.0 mm 0.00 in0.0 mm
07:00 AM 73.2°F22.9°C 65.2°F18.4°C 76% 2.3 mph N3.7 kmh N 3.5 mph5.6 kmh 29.57 in1001.4 mb - 0.00 in0.0 mm 0.00 in0.0 mm
06:55 AM 72.9°F22.7°C 64.8°F18.2°C 76% 1.2 mph N1.9 kmh N 2.3 mph3.7 kmh 29.57 in1001.4 mb - 0.00 in0.0 mm 0.00 in0.0 mm
06:50 AM 72.5°F22.5°C 65.6°F18.7°C 79% 1.2 mph NE1.9 kmh NE 2.3 mph3.7 kmh 29.57 in1001.4 mb - 0.00 in0.0 mm 0.00 in0.0 mm
06:45 AM 72.1°F22.3°C 65.3°F18.5°C 79% 1.2 mph NNE1.9 kmh NNE 2.3 mph3.7 kmh 29.57 in1001.4 mb - 0.00 in0.0 mm 0.00 in0.0 mm
06:40 AM 71.1°F21.7°C 64.6°F18.1°C 80% 1.2 mph N1.9 kmh N 2.3 mph3.7 kmh 29.56 in1001.0 mb - 0.00 in0.0 mm 0.00 in0.0 mm
06:35 AM 70.1°F21.2°C 63.6°F17.6°C 80% 2.3 mph NNE3.7 kmh NNE 2.3 mph3.7 kmh 29.56 in1001.0 mb - 0.00 in0.0 mm 0.00 in0.0 mm
06:30 AM 69.6°F20.9°C 63.5°F17.5°C 81% 2.3 mph NNW3.7 kmh NNW 3.5 mph5.6 kmh 29.56 in1001.0 mb - 0.00 in0.0 mm 0.00 in0.0 mm
06:25 AM 69.4°F20.8°C 63.4°F17.4°C 81% 2.3 mph NNE3.7 kmh NNE 3.5 mph5.6 kmh 29.56 in1001.0 mb - 0.00 in0.0 mm 0.00 in0.0 mm
06:20 AM 69.3°F20.7°C 63.5°F17.5°C 82% Calm Calm 1.2 mph1.9 kmh 29.56 in1001.0 mb - 0.00 in0.0 mm 0.00 in0.0 mm
06:15 AM 68.5°F20.3°C 63.2°F17.3°C 83% 2.3 mph NNE3.7 kmh NNE 2.3 mph3.7 kmh 29.56 in1001.0 mb - 0.00 in0.0 mm 0.00 in0.0 mm
06:10 AM 68.0°F20.0°C 62.7°F17.1°C 83% 2.3 mph N3.7 kmh N 3.5 mph5.6 kmh 29.56 in1001.0 mb - 0.00 in0.0 mm 0.00 in0.0 mm
06:00 AM 67.2°F19.6°C 62.9°F17.2°C 86% 2.3 mph NNW3.7 kmh NNW 3.5 mph5.6 kmh 29.56 in1001.0 mb - 0.00 in0.0 mm 0.00 in0.0 mm
05:55 AM 66.7°F19.3°C 62.4°F16.9°C 86% 2.3 mph NNW3.7 kmh NNW 3.5 mph5.6 kmh 29.56 in1001.0 mb - 0.00 in0.0 mm 0.00 in0.0 mm
05:50 AM 66.0°F18.9°C 61.7°F16.5°C 86% 2.3 mph NNW3.7 kmh NNW 3.5 mph5.6 kmh 29.56 in1001.0 mb - 0.00 in0.0 mm 0.00 in0.0 mm
05:45 AM 65.7°F18.7°C 61.7°F16.5°C 87% 1.2 mph NNW1.9 kmh NNW 2.3 mph3.7 kmh 29.56 in1001.0 mb - 0.00 in0.0 mm 0.00 in0.0 mm
05:40 AM 65.0°F18.3°C 61.1°F16.2°C 87% 2.3 mph NNW3.7 kmh NNW 3.5 mph5.6 kmh 29.57 in1001.4 mb - 0.00 in0.0 mm 0.00 in0.0 mm
05:35 AM 64.7°F18.2°C 61.0°F16.1°C 88% 2.3 mph NNW3.7 kmh NNW 2.3 mph3.7 kmh 29.57 in1001.4 mb - 0.00 in0.0 mm 0.00 in0.0 mm
05:30 AM 64.2°F17.9°C 60.8°F16.0°C 89% 2.3 mph NNE3.7 kmh NNE 2.3 mph3.7 kmh 29.56 in1001.0 mb - 0.00 in0.0 mm 0.00 in0.0 mm
05:25 AM 63.3°F17.4°C 60.0°F15.6°C 89% 1.2 mph NNW1.9 kmh NNW -- 29.55 in1000.7 mb - 0.00 in0.0 mm 0.00 in0.0 mm
05:20 AM 63.1°F17.3°C 60.2°F15.7°C 90% 2.3 mph NNW3.7 kmh NNW 2.3 mph3.7 kmh 29.55 in1000.7 mb - 0.00 in0.0 mm 0.00 in0.0 mm
05:15 AM 62.6°F17.0°C 59.9°F15.5°C 91% 2.3 mph 3.7 kmh 2.3 mph3.7 kmh 29.56 in1001.0 mb - 0.00 in0.0 mm 0.00 in0.0 mm
05:10 AM 61.8°F16.6°C 59.2°F15.1°C 91% 2.3 mph NNW3.7 kmh NNW 3.5 mph5.6 kmh 29.56 in1001.0 mb - 0.00 in0.0 mm 0.00 in0.0 mm
05:00 AM 60.6°F15.9°C 57.4°F14.1°C 89% 2.3 mph NNW3.7 kmh NNW 3.5 mph5.6 kmh 29.56 in1001.0 mb - 0.00 in0.0 mm 0.00 in0.0 mm
04:55 AM 60.4°F15.8°C 56.9°F13.8°C 88% 1.2 mph NNW1.9 kmh NNW 2.3 mph3.7 kmh 29.55 in1000.7 mb - 0.00 in0.0 mm 0.00 in0.0 mm
04:50 AM 59.9°F15.5°C 56.3°F13.5°C 88% 1.2 mph NNW1.9 kmh NNW 1.2 mph1.9 kmh 29.55 in1000.7 mb - 0.00 in0.0 mm 0.00 in0.0 mm
04:45 AM 59.5°F15.3°C 56.0°F13.3°C 88% 1.2 mph NW1.9 kmh NW 3.5 mph5.6 kmh 29.55 in1000.7 mb - 0.00 in0.0 mm 0.00 in0.0 mm
04:40 AM 59.4°F15.2°C 55.8°F13.2°C 88% Calm Calm 1.2 mph1.9 kmh 29.56 in1001.0 mb - 0.00 in0.0 mm 0.00 in0.0 mm
04:35 AM 59.3°F15.2°C 55.7°F13.2°C 88% Calm Calm 1.2 mph1.9 kmh 29.56 in1001.0 mb - 0.00 in0.0 mm 0.00 in0.0 mm
04:30 AM 59.2°F15.1°C 55.3°F12.9°C 87% Calm Calm -- 29.55 in1000.7 mb - 0.00 in0.0 mm 0.00 in0.0 mm
04:25 AM 59.2°F15.1°C 55.3°F12.9°C 87% Calm Calm -- 29.55 in1000.7 mb - 0.00 in0.0 mm 0.00 in0.0 mm
04:20 AM 59.0°F15.0°C 55.1°F12.8°C 87% Calm Calm -- 29.55 in1000.7 mb - 0.00 in0.0 mm 0.00 in0.0 mm
04:15 AM 59.2°F15.1°C 55.3°F12.9°C 87% Calm Calm -- 29.55 in1000.7 mb - 0.00 in0.0 mm 0.00 in0.0 mm
04:10 AM 59.2°F15.1°C 55.3°F12.9°C 87% Calm Calm -- 29.56 in1001.0 mb - 0.00 in0.0 mm 0.00 in0.0 mm
04:00 AM 59.2°F15.1°C 55.3°F12.9°C 87% Calm Calm -- 29.56 in1001.0 mb - 0.00 in0.0 mm 0.00 in0.0 mm
03:55 AM 59.4°F15.2°C 55.5°F13.1°C 87% Calm Calm -- 29.55 in1000.7 mb - 0.00 in0.0 mm 0.00 in0.0 mm
03:50 AM 59.4°F15.2°C 55.2°F12.9°C 86% Calm Calm -- 29.55 in1000.7 mb - 0.00 in0.0 mm 0.00 in0.0 mm
03:45 AM 59.5°F15.3°C 55.3°F12.9°C 86% Calm Calm -- 29.55 in1000.7 mb - 0.00 in0.0 mm 0.00 in0.0 mm
03:40 AM 59.4°F15.2°C 55.2°F12.9°C 86% Calm Calm 1.2 mph1.9 kmh 29.55 in1000.7 mb - 0.00 in0.0 mm 0.00 in0.0 mm
03:35 AM 59.5°F15.3°C 55.3°F12.9°C 86% Calm Calm -- 29.55 in1000.7 mb - 0.00 in0.0 mm 0.00 in0.0 mm
03:30 AM 59.5°F15.3°C 55.3°F12.9°C 86% 1.2 mph WNW1.9 kmh WNW 1.2 mph1.9 kmh 29.55 in1000.7 mb - 0.00 in0.0 mm 0.00 in0.0 mm
03:25 AM 59.5°F15.3°C 55.3°F12.9°C 86% 1.2 mph NW1.9 kmh NW 2.3 mph3.7 kmh 29.55 in1000.7 mb - 0.00 in0.0 mm 0.00 in0.0 mm
03:20 AM 59.7°F15.4°C 55.5°F13.1°C 86% Calm Calm -- 29.55 in1000.7 mb - 0.00 in0.0 mm 0.00 in0.0 mm
03:15 AM 59.9°F15.5°C 55.7°F13.2°C 86% Calm Calm -- 29.55 in1000.7 mb - 0.00 in0.0 mm 0.00 in0.0 mm
03:10 AM 60.0°F15.6°C 55.8°F13.2°C 86% Calm Calm -- 29.55 in1000.7 mb - 0.00 in0.0 mm 0.00 in0.0 mm
03:00 AM 60.1°F15.6°C 55.9°F13.3°C 86% 1.2 mph NW1.9 kmh NW 1.2 mph1.9 kmh 29.55 in1000.7 mb - 0.00 in0.0 mm 0.00 in0.0 mm
02:55 AM 60.1°F15.6°C 55.9°F13.3°C 86% Calm Calm -- 29.55 in1000.7 mb - 0.00 in0.0 mm 0.00 in0.0 mm
02:50 AM 60.3°F15.7°C 56.1°F13.4°C 86% Calm Calm -- 29.55 in1000.7 mb - 0.00 in0.0 mm 0.00 in0.0 mm
02:45 AM 60.3°F15.7°C 55.4°F13.0°C 84% 1.2 mph NW1.9 kmh NW -- 29.55 in1000.7 mb - 0.00 in0.0 mm 0.00 in0.0 mm
02:40 AM 60.3°F15.7°C 55.4°F13.0°C 84% Calm Calm -- 29.55 in1000.7 mb - 0.00 in0.0 mm 0.00 in0.0 mm
02:35 AM 60.3°F15.7°C 55.5°F13.1°C 84% Calm Calm -- 29.55 in1000.7 mb - 0.00 in0.0 mm 0.00 in0.0 mm
02:30 AM 60.6°F15.9°C 55.8°F13.2°C 84% Calm Calm -- 29.55 in1000.7 mb - 0.00 in0.0 mm 0.00 in0.0 mm
02:25 AM 60.6°F15.9°C 55.8°F13.2°C 84% Calm Calm -- 29.54 in1000.3 mb - 0.00 in0.0 mm 0.00 in0.0 mm
02:20 AM 60.6°F15.9°C 55.8°F13.2°C 84% Calm Calm 2.3 mph3.7 kmh 29.54 in1000.3 mb - 0.00 in0.0 mm 0.00 in0.0 mm
02:15 AM 60.6°F15.9°C 55.8°F13.2°C 84% Calm Calm -- 29.54 in1000.3 mb - 0.00 in0.0 mm 0.00 in0.0 mm
02:10 AM 60.7°F15.9°C 55.9°F13.3°C 84% Calm Calm -- 29.55 in1000.7 mb - 0.00 in0.0 mm 0.00 in0.0 mm
02:00 AM 60.8°F16.0°C 55.9°F13.3°C 84% Calm Calm -- 29.55 in1000.7 mb - 0.00 in0.0 mm 0.00 in0.0 mm
01:55 AM 61.0°F16.1°C 56.1°F13.4°C 84% Calm Calm -- 29.55 in1000.7 mb - 0.00 in0.0 mm 0.00 in0.0 mm
01:50 AM 61.0°F16.1°C 56.1°F13.4°C 84% Calm Calm -- 29.55 in1000.7 mb - 0.00 in0.0 mm 0.00 in0.0 mm
01:45 AM 61.0°F16.1°C 55.8°F13.2°C 83% Calm Calm -- 29.55 in1000.7 mb - 0.00 in0.0 mm 0.00 in0.0 mm
01:40 AM 61.2°F16.2°C 56.0°F13.3°C 83% Calm Calm -- 29.55 in1000.7 mb - 0.00 in0.0 mm 0.00 in0.0 mm
01:35 AM 61.2°F16.2°C 56.0°F13.3°C 83% Calm Calm -- 29.55 in1000.7 mb - 0.00 in0.0 mm 0.00 in0.0 mm
01:30 AM 61.3°F16.3°C 56.1°F13.4°C 83% Calm Calm -- 29.55 in1000.7 mb - 0.00 in0.0 mm 0.00 in0.0 mm
01:25 AM 61.5°F16.4°C 56.0°F13.3°C 82% Calm Calm -- 29.55 in1000.7 mb - 0.00 in0.0 mm 0.00 in0.0 mm
01:20 AM 61.5°F16.4°C 56.3°F13.5°C 83% Calm Calm -- 29.55 in1000.7 mb - 0.00 in0.0 mm 0.00 in0.0 mm
01:15 AM 61.7°F16.5°C 56.4°F13.6°C 83% Calm Calm -- 29.55 in1000.7 mb - 0.00 in0.0 mm 0.00 in0.0 mm
01:10 AM 61.7°F16.5°C 56.1°F13.4°C 82% Calm Calm -- 29.55 in1000.7 mb - 0.00 in0.0 mm 0.00 in0.0 mm
01:00 AM 61.9°F16.6°C 56.3°F13.5°C 82% Calm Calm -- 29.55 in1000.7 mb - 0.00 in0.0 mm 0.00 in0.0 mm
12:55 AM 62.1°F16.7°C 56.2°F13.4°C 81% Calm Calm -- 29.55 in1000.7 mb - 0.00 in0.0 mm 0.00 in0.0 mm
12:50 AM 62.1°F16.7°C 56.2°F13.4°C 81% Calm Calm -- 29.55 in1000.7 mb - 0.00 in0.0 mm 0.00 in0.0 mm
12:45 AM 62.2°F16.8°C 56.3°F13.5°C 81% Calm Calm -- 29.55 in1000.7 mb - 0.00 in0.0 mm 0.00 in0.0 mm
12:40 AM 62.4°F16.9°C 56.5°F13.6°C 81% Calm Calm -- 29.56 in1001.0 mb - 0.00 in0.0 mm 0.00 in0.0 mm
12:35 AM 62.4°F16.9°C 56.5°F13.6°C 81% Calm Calm -- 29.56 in1001.0 mb - 0.00 in0.0 mm 0.00 in0.0 mm
12:30 AM 62.4°F16.9°C 56.5°F13.6°C 81% Calm Calm -- 29.56 in1001.0 mb - 0.00 in0.0 mm 0.00 in0.0 mm
12:25 AM 62.4°F16.9°C 56.5°F13.6°C 81% Calm Calm -- 29.55 in1000.7 mb - 0.00 in0.0 mm 0.00 in0.0 mm
12:20 AM 62.6°F17.0°C 56.3°F13.5°C 80% Calm Calm -- 29.55 in1000.7 mb - 0.00 in0.0 mm 0.00 in0.0 mm
12:15 AM 62.8°F17.1°C 56.5°F13.6°C 80% Calm Calm -- 29.55 in1000.7 mb - 0.00 in0.0 mm 0.00 in0.0 mm
12:10 AM 63.0°F17.2°C 56.3°F13.5°C 79% Calm Calm -- 29.55 in1000.7 mb - 0.00 in0.0 mm 0.00 in0.0 mm
12:00 AM 63.1°F17.3°C 56.5°F13.6°C 79% Calm Calm -- 29.55 in1000.7 mb - 0.00 in0.0 mm 0.00 in0.0 mm